createdAt,value
2018-05-28T00:01:08.022Z,90.80
2018-05-28T00:03:35.901Z,90.80
2018-05-28T00:06:03.937Z,90.90
2018-05-28T00:08:30.364Z,90.90
2018-05-28T00:10:56.766Z,91.00
2018-05-28T00:13:23.176Z,91.00
2018-05-28T00:16:03.889Z,91.00
2018-05-28T00:18:43.872Z,91.00
2018-05-28T00:21:10.303Z,91.20
2018-05-28T00:23:36.810Z,91.30
2018-05-28T00:26:03.195Z,91.40
2018-05-28T00:28:30.349Z,91.40
2018-05-28T00:30:57.483Z,91.50
2018-05-28T00:33:23.881Z,91.50
2018-05-28T00:35:50.284Z,91.50
2018-05-28T00:38:16.691Z,91.50
2018-05-28T00:40:43.855Z,91.50
2018-05-28T00:43:10.985Z,91.60
2018-05-28T00:45:37.384Z,91.60
2018-05-28T00:48:03.829Z,91.60
2018-05-28T00:50:30.220Z,91.60
2018-05-28T00:52:56.601Z,91.50
2018-05-28T00:55:35.232Z,91.50
2018-05-28T00:58:01.624Z,91.50
2018-05-28T01:00:28.011Z,91.40
2018-05-28T01:02:55.147Z,91.40
2018-05-28T01:05:22.270Z,91.30
2018-05-28T01:07:48.693Z,91.30
2018-05-28T01:10:15.166Z,91.30
2018-05-28T01:12:42.336Z,91.20
2018-05-28T01:15:09.480Z,91.30
2018-05-28T01:17:36.606Z,91.40
2018-05-28T01:20:03.030Z,91.30
2018-05-28T01:22:29.416Z,91.40
2018-05-28T01:24:55.862Z,91.40
2018-05-28T01:27:22.258Z,91.50
2018-05-28T01:29:49.398Z,91.70
2018-05-28T01:32:15.777Z,91.70
2018-05-28T01:34:42.159Z,91.80
2018-05-28T01:37:08.551Z,91.60
2018-05-28T01:39:34.941Z,91.60
2018-05-28T01:42:02.068Z,91.70
2018-05-28T01:44:28.477Z,91.70
2018-05-28T01:46:54.881Z,92.10
2018-05-28T01:49:21.274Z,92.30
2018-05-28T01:51:47.666Z,92.20
2018-05-28T01:54:14.061Z,92.30
2018-05-28T01:56:40.465Z,92.20
2018-05-28T01:59:06.898Z,92.30
2018-05-28T02:01:33.368Z,92.30
2018-05-28T02:04:00.508Z,92.40
2018-05-28T02:06:27.667Z,92.50
2018-05-28T02:08:54.077Z,92.50
2018-05-28T02:11:21.231Z,92.60
2018-05-28T02:13:48.364Z,92.60
2018-05-28T02:16:14.760Z,92.60
2018-05-28T02:18:41.161Z,92.80
2018-05-28T02:21:07.604Z,92.90
2018-05-28T02:23:34.011Z,92.90
2018-05-28T02:26:01.256Z,92.90
2018-05-28T02:28:27.649Z,92.90
2018-05-28T02:30:54.049Z,92.80
2018-05-28T02:33:20.463Z,92.70
2018-05-28T02:35:47.608Z,92.80
2018-05-28T02:38:14.754Z,92.80
2018-05-28T02:40:41.159Z,92.80
2018-05-28T02:43:07.588Z,93.10
2018-05-28T02:45:33.994Z,92.80
2018-05-28T02:48:00.408Z,92.80
2018-05-28T02:50:27.541Z,92.70
2018-05-28T02:52:53.939Z,92.70
2018-05-28T02:55:20.338Z,92.70
2018-05-28T02:57:46.735Z,93.00
2018-05-28T03:00:13.938Z,92.60
2018-05-28T03:02:40.337Z,92.60
2018-05-28T03:05:07.463Z,92.70
2018-05-28T03:07:35.357Z,92.60
2018-05-28T03:10:01.772Z,92.60
2018-05-28T03:12:28.924Z,92.70
2018-05-28T03:14:56.059Z,92.70
2018-05-28T03:17:23.194Z,92.90
2018-05-28T03:19:49.588Z,92.90
2018-05-28T03:22:16.048Z,92.80
2018-05-28T03:24:42.470Z,92.70
2018-05-28T03:27:08.868Z,92.60
2018-05-28T03:29:38.188Z,92.80
2018-05-28T03:32:04.605Z,92.80
2018-05-28T03:34:31.730Z,92.80
2018-05-28T03:36:58.115Z,92.80
2018-05-28T03:39:24.519Z,92.80
2018-05-28T03:41:51.647Z,92.80
2018-05-28T03:44:18.802Z,92.90
2018-05-28T03:46:45.184Z,92.90
2018-05-28T03:49:11.559Z,92.80
2018-05-28T03:51:38.708Z,92.90
2018-05-28T03:54:05.865Z,92.80
2018-05-28T03:56:33.029Z,92.80
2018-05-28T03:59:00.170Z,93.00
2018-05-28T04:01:39.544Z,92.90
2018-05-28T04:04:18.381Z,92.90
2018-05-28T04:06:44.782Z,92.90
2018-05-28T04:09:11.447Z,92.90
2018-05-28T04:11:37.836Z,92.90
2018-05-28T04:14:04.971Z,92.90
2018-05-28T04:16:32.121Z,93.20
2018-05-28T04:18:59.265Z,92.90
2018-05-28T04:21:26.400Z,92.80
2018-05-28T04:23:52.847Z,92.70
2018-05-28T04:26:20.759Z,92.80
2018-05-28T04:28:47.221Z,92.80
2018-05-28T04:31:13.626Z,92.50
2018-05-28T04:33:40.027Z,92.50
2018-05-28T04:36:07.155Z,92.40
2018-05-28T04:38:33.533Z,92.30
2018-05-28T04:40:59.930Z,92.30
2018-05-28T04:43:26.387Z,92.30
2018-05-28T04:45:53.540Z,92.40
2018-05-28T04:48:20.666Z,92.40
2018-05-28T04:50:47.058Z,92.40
2018-05-28T04:53:13.446Z,92.30
2018-05-28T04:55:40.575Z,92.30
2018-05-28T04:58:06.968Z,92.30
2018-05-28T05:00:33.373Z,92.20
2018-05-28T05:03:00.569Z,92.20
2018-05-28T05:05:26.979Z,92.10
2018-05-28T05:07:53.407Z,92.20
2018-05-28T05:10:19.858Z,92.20
2018-05-28T05:12:46.265Z,92.40
2018-05-28T05:15:12.653Z,92.30
2018-05-28T05:17:39.060Z,92.40
2018-05-28T05:20:05.456Z,92.40
2018-05-28T05:22:31.854Z,92.20
2018-05-28T05:24:58.317Z,92.00
2018-05-28T05:27:24.744Z,92.00
2018-05-28T05:29:52.590Z,91.30
2018-05-28T05:32:19.051Z,91.30
2018-05-28T05:34:45.459Z,91.00
2018-05-28T05:37:12.594Z,90.30
2018-05-28T05:39:38.997Z,90.30
2018-05-28T05:42:05.407Z,90.00
2018-05-28T05:44:31.843Z,89.00
2018-05-28T05:46:58.225Z,88.00
2018-05-28T05:49:24.672Z,87.70
2018-05-28T05:51:51.184Z,87.40
2018-05-28T05:54:17.563Z,87.60
2018-05-28T05:56:44.717Z,88.50
2018-05-28T05:59:11.121Z,88.50
2018-05-28T06:01:37.534Z,88.60
2018-05-28T06:04:05.497Z,88.60
2018-05-28T06:06:31.894Z,88.60
2018-05-28T06:08:58.325Z,87.90
2018-05-28T06:11:24.758Z,87.50
2018-05-28T06:13:51.159Z,87.70
2018-05-28T06:16:17.580Z,88.30
2018-05-28T06:18:44.739Z,87.90
2018-05-28T06:21:12.617Z,87.70
2018-05-28T06:23:39.805Z,88.10
2018-05-28T06:26:06.234Z,88.10
2018-05-28T06:28:32.643Z,87.80
2018-05-28T06:30:59.859Z,88.90
2018-05-28T06:33:27.789Z,88.20
2018-05-28T06:35:54.246Z,88.20
2018-05-28T06:38:20.664Z,87.90
2018-05-28T06:40:47.096Z,87.60
2018-05-28T06:43:13.526Z,88.40
2018-05-28T06:45:39.943Z,88.40
2018-05-28T06:48:06.373Z,87.40
2018-05-28T06:50:32.805Z,87.50
2018-05-28T06:52:59.206Z,86.60
2018-05-28T06:55:25.623Z,86.90
2018-05-28T06:57:52.057Z,86.60
2018-05-28T07:00:18.519Z,86.70
2018-05-28T07:02:45.659Z,86.90
2018-05-28T07:05:12.812Z,86.10
2018-05-28T07:07:39.269Z,86.00
2018-05-28T07:10:05.743Z,86.30
2018-05-28T07:12:32.143Z,86.60
2018-05-28T07:14:58.541Z,86.70
2018-05-28T07:17:24.943Z,86.30
2018-05-28T07:19:51.338Z,87.50
2018-05-28T07:22:18.468Z,86.50
2018-05-28T07:24:45.628Z,86.10
2018-05-28T07:27:12.786Z,84.80
2018-05-28T07:29:39.202Z,84.70
2018-05-28T07:32:06.340Z,85.40
2018-05-28T07:34:34.243Z,85.50
2018-05-28T07:37:00.652Z,85.50
2018-05-28T07:39:27.934Z,85.90
2018-05-28T07:41:54.347Z,85.90
2018-05-28T07:44:21.484Z,85.90
2018-05-28T07:46:48.628Z,85.40
2018-05-28T07:49:15.010Z,85.80
2018-05-28T07:51:41.424Z,86.40
2018-05-28T07:54:07.824Z,86.80
2018-05-28T07:56:34.271Z,86.90
2018-05-28T07:59:01.415Z,86.10
2018-05-28T08:01:28.571Z,86.50
2018-05-28T08:03:55.723Z,85.00
2018-05-28T08:06:22.868Z,85.20
2018-05-28T08:08:49.998Z,85.40
2018-05-28T08:11:16.472Z,85.30
2018-05-28T08:13:43.600Z,83.80
2018-05-28T08:16:10.744Z,81.70
2018-05-28T08:18:38.652Z,82.40
2018-05-28T08:21:05.042Z,82.40
2018-05-28T08:23:31.457Z,84.90
2018-05-28T08:25:57.846Z,84.90
2018-05-28T08:28:24.242Z,82.60
2018-05-28T08:30:50.643Z,83.30
2018-05-28T08:33:17.048Z,84.10
2018-05-28T08:35:43.474Z,82.50
2018-05-28T08:38:09.912Z,83.70
2018-05-28T08:40:36.307Z,84.30
2018-05-28T08:43:02.703Z,83.60
2018-05-28T08:45:29.151Z,83.50
2018-05-28T08:47:55.585Z,84.80
2018-05-28T08:50:22.716Z,83.30
2018-05-28T08:52:49.166Z,83.30
2018-05-28T08:55:17.071Z,82.90
2018-05-28T08:57:44.211Z,83.40
2018-05-28T09:00:11.355Z,83.90
2018-05-28T09:02:37.755Z,83.90
2018-05-28T09:05:04.149Z,83.60
2018-05-28T09:07:31.267Z,85.00
2018-05-28T09:09:57.642Z,85.00
2018-05-28T09:12:24.110Z,84.40
2018-05-28T09:14:50.495Z,84.20
2018-05-28T09:17:17.653Z,83.20
2018-05-28T09:19:44.052Z,83.10
2018-05-28T09:22:11.204Z,83.90
2018-05-28T09:24:37.597Z,84.00
2018-05-28T09:27:04.022Z,83.90
2018-05-28T09:29:30.414Z,84.20
2018-05-28T09:31:57.588Z,82.90
2018-05-28T09:34:23.990Z,82.90
2018-05-28T09:36:51.139Z,82.50
2018-05-28T09:39:17.544Z,82.50
2018-05-28T09:41:43.984Z,82.90
2018-05-28T09:44:10.402Z,82.90
2018-05-28T09:46:36.790Z,82.70
2018-05-28T09:49:03.311Z,84.30
2018-05-28T09:51:30.491Z,83.80
2018-05-28T09:53:56.964Z,83.80
2018-05-28T09:56:23.374Z,83.90
2018-05-28T09:58:49.790Z,83.80
2018-05-28T10:01:16.187Z,83.30
2018-05-28T10:03:43.344Z,83.00
2018-05-28T10:06:10.521Z,82.00
2018-05-28T10:08:36.936Z,82.00
2018-05-28T10:11:04.085Z,82.70
2018-05-28T10:13:31.248Z,82.70
2018-05-28T10:15:57.714Z,82.70
2018-05-28T10:18:24.145Z,83.40
2018-05-28T10:20:50.551Z,83.00
2018-05-28T10:23:16.935Z,83.20
2018-05-28T10:25:43.330Z,82.90
2018-05-28T10:28:09.748Z,82.80
2018-05-28T10:30:36.208Z,82.90
2018-05-28T10:33:03.343Z,81.90
2018-05-28T10:35:29.752Z,81.80
2018-05-28T10:37:56.903Z,80.30
2018-05-28T10:40:24.042Z,79.00
2018-05-28T10:42:51.907Z,78.80
2018-05-28T10:45:19.071Z,77.70
2018-05-28T10:47:46.208Z,79.00
2018-05-28T10:50:12.603Z,79.10
2018-05-28T10:52:39.047Z,80.20
2018-05-28T10:55:12.467Z,77.90
2018-05-28T10:57:38.934Z,76.70
2018-05-28T11:00:05.382Z,75.30
2018-05-28T11:02:31.776Z,75.50
2018-05-28T11:04:58.945Z,75.20
2018-05-28T11:07:26.063Z,76.20
2018-05-28T11:09:52.454Z,75.50
2018-05-28T11:12:18.836Z,75.50
2018-05-28T11:14:45.985Z,76.10
2018-05-28T11:17:13.124Z,76.00
2018-05-28T11:19:39.500Z,75.50
2018-05-28T11:22:05.900Z,75.80
2018-05-28T11:24:32.302Z,75.10
2018-05-28T11:26:58.693Z,74.60
2018-05-28T11:29:25.088Z,73.90
2018-05-28T11:31:51.565Z,75.30
2018-05-28T11:34:17.952Z,74.00
2018-05-28T11:36:44.357Z,74.40
2018-05-28T11:39:10.824Z,73.60
2018-05-28T11:41:37.169Z,74.10
2018-05-28T11:44:04.327Z,73.40
2018-05-28T11:46:31.526Z,73.60
2018-05-28T11:48:57.911Z,73.50
2018-05-28T11:51:25.039Z,73.20
2018-05-28T11:53:51.421Z,73.10
2018-05-28T11:56:17.827Z,72.80
2018-05-28T11:58:44.987Z,72.30
2018-05-28T12:01:11.437Z,72.20
2018-05-28T12:03:37.769Z,73.20
2018-05-28T12:06:04.192Z,72.40
2018-05-28T12:08:30.638Z,73.10
2018-05-28T12:10:57.672Z,72.30
2018-05-28T12:13:24.064Z,73.70
2018-05-28T12:15:50.485Z,73.40
2018-05-28T12:18:16.891Z,74.40
2018-05-28T12:20:43.410Z,72.70
2018-05-28T12:23:10.519Z,72.70
2018-05-28T12:25:36.926Z,72.70
2018-05-28T12:28:03.351Z,72.40
2018-05-28T12:30:29.738Z,74.80
2018-05-28T12:32:56.866Z,77.80
2018-05-28T12:35:23.260Z,77.90
2018-05-28T12:37:49.677Z,77.50
2018-05-28T12:40:16.123Z,77.00
2018-05-28T12:42:42.515Z,75.30
2018-05-28T12:45:09.658Z,75.40
2018-05-28T12:47:36.089Z,75.30
2018-05-28T12:50:03.300Z,73.80
2018-05-28T12:52:29.724Z,73.80
2018-05-28T12:54:56.113Z,73.80
2018-05-28T12:57:22.505Z,72.20
2018-05-28T12:59:48.923Z,72.80
2018-05-28T13:02:15.331Z,73.10
2018-05-28T13:04:41.734Z,73.20
2018-05-28T13:07:08.888Z,73.90
2018-05-28T13:09:35.288Z,73.90
2018-05-28T13:12:01.713Z,74.80
2018-05-28T13:14:28.134Z,75.00
2018-05-28T13:16:54.535Z,74.20
2018-05-28T13:19:21.673Z,75.50
2018-05-28T13:21:48.888Z,75.10
2018-05-28T13:24:15.292Z,75.10
2018-05-28T13:26:41.722Z,75.30
2018-05-28T13:29:08.130Z,75.50
2018-05-28T13:31:35.297Z,75.10
2018-05-28T13:34:01.729Z,75.10
2018-05-28T13:36:28.147Z,75.40
2018-05-28T13:38:55.317Z,75.10
2018-05-28T13:41:21.724Z,75.10
2018-05-28T13:43:48.921Z,75.30
2018-05-28T13:46:15.321Z,75.30
2018-05-28T13:48:42.500Z,75.60
2018-05-28T13:51:08.906Z,75.50
2018-05-28T13:53:35.305Z,76.00
2018-05-28T13:56:01.716Z,75.20
2018-05-28T13:58:28.126Z,75.70
2018-05-28T14:00:54.529Z,75.20
2018-05-28T14:03:21.689Z,75.00
2018-05-28T14:05:48.108Z,75.00
2018-05-28T14:08:14.512Z,74.80
2018-05-28T14:10:42.417Z,75.10
2018-05-28T14:13:09.566Z,75.20
2018-05-28T14:15:35.986Z,75.10
2018-05-28T14:18:02.426Z,76.80
2018-05-28T14:20:28.840Z,76.10
2018-05-28T14:22:56.284Z,76.00
2018-05-28T14:25:24.158Z,76.40
2018-05-28T14:27:50.534Z,76.40
2018-05-28T14:30:16.965Z,75.60
2018-05-28T14:32:44.090Z,76.20
2018-05-28T14:35:10.484Z,76.20
2018-05-28T14:37:36.890Z,75.80
2018-05-28T14:40:03.299Z,76.50
2018-05-28T14:42:30.444Z,76.20
2018-05-28T14:44:57.591Z,76.00
2018-05-28T14:47:23.996Z,76.00
2018-05-28T14:49:50.400Z,76.50
2018-05-28T14:52:16.808Z,75.80
2018-05-28T14:54:43.204Z,75.80
2018-05-28T14:57:09.570Z,75.00
2018-05-28T14:59:36.705Z,76.00
2018-05-28T15:02:04.606Z,76.10
2018-05-28T15:04:31.017Z,76.10
2018-05-28T15:06:58.152Z,76.50
2018-05-28T15:09:26.018Z,76.30
2018-05-28T15:11:53.176Z,76.40
2018-05-28T15:14:19.572Z,76.30
2018-05-28T15:16:46.058Z,76.60
2018-05-28T15:19:12.466Z,76.10
2018-05-28T15:21:38.865Z,75.80
2018-05-28T15:24:05.324Z,75.80
2018-05-28T15:26:31.721Z,75.60
2018-05-28T15:28:58.160Z,75.20
2018-05-28T15:31:24.544Z,74.80
2018-05-28T15:33:51.684Z,75.90
2018-05-28T15:36:18.164Z,75.20
2018-05-28T15:38:45.335Z,75.00
2018-05-28T15:41:11.756Z,75.00
2018-05-28T15:43:38.230Z,74.50
2018-05-28T15:46:06.145Z,73.70
2018-05-28T15:48:32.568Z,73.60
2018-05-28T15:50:59.698Z,73.50
2018-05-28T15:53:26.101Z,73.50
2018-05-28T15:55:53.987Z,74.10
2018-05-28T15:58:20.392Z,74.10
2018-05-28T16:00:46.786Z,73.70
2018-05-28T16:03:13.162Z,73.60
2018-05-28T16:05:39.549Z,74.00
2018-05-28T16:08:05.981Z,73.90
2018-05-28T16:10:33.163Z,74.00
2018-05-28T16:12:59.563Z,73.90
2018-05-28T16:15:25.950Z,74.10
2018-05-28T16:17:52.345Z,74.40
2018-05-28T16:20:19.290Z,74.40
2018-05-28T16:22:45.717Z,74.70
2018-05-28T16:25:12.157Z,74.90
2018-05-28T16:27:38.579Z,75.50
2018-05-28T16:30:11.837Z,76.20
2018-05-28T16:32:38.228Z,75.90
2018-05-28T16:35:04.664Z,76.10
2018-05-28T16:37:31.112Z,75.70
2018-05-28T16:39:57.565Z,74.80
2018-05-28T16:42:23.915Z,75.90
2018-05-28T16:44:50.312Z,75.90
2018-05-28T16:47:16.697Z,76.60
2018-05-28T16:49:43.094Z,76.30
2018-05-28T16:52:09.490Z,76.90
2018-05-28T16:54:35.896Z,76.70
2018-05-28T16:57:02.281Z,77.40
2018-05-28T16:59:28.667Z,77.10
2018-05-28T17:01:55.054Z,77.40
2018-05-28T17:04:22.919Z,77.70
2018-05-28T17:06:49.293Z,77.70
2018-05-28T17:09:15.676Z,77.70
2018-05-28T17:11:42.068Z,78.60
2018-05-28T17:14:08.454Z,78.30
2018-05-28T17:16:34.838Z,78.30
2018-05-28T17:19:01.242Z,78.40
2018-05-28T17:21:28.415Z,78.40
2018-05-28T17:23:54.828Z,78.40
2018-05-28T17:26:21.258Z,78.70
2018-05-28T17:28:48.402Z,79.00
2018-05-28T17:31:15.556Z,79.10
2018-05-28T17:33:42.681Z,79.20
2018-05-28T17:36:09.073Z,79.20
2018-05-28T17:38:37.454Z,79.50
2018-05-28T17:41:03.995Z,79.60
2018-05-28T17:43:30.406Z,79.60
2018-05-28T17:45:56.792Z,79.70
2018-05-28T17:48:23.951Z,80.20
2018-05-28T17:50:50.375Z,80.10
2018-05-28T17:53:16.769Z,80.30
2018-05-28T17:55:43.182Z,80.30
2018-05-28T17:58:09.588Z,80.50
2018-05-28T18:00:36.802Z,80.50
2018-05-28T18:03:04.434Z,80.50
2018-05-28T18:05:30.866Z,80.40
2018-05-28T18:07:57.269Z,80.20
2018-05-28T18:10:23.670Z,80.10
2018-05-28T18:12:50.076Z,80.50
2018-05-28T18:15:16.492Z,80.40
2018-05-28T18:17:42.894Z,80.30
2018-05-28T18:20:10.045Z,79.70
2018-05-28T18:22:37.213Z,80.30
2018-05-28T18:25:04.377Z,80.10
2018-05-28T18:40:33.096Z,81.20
2018-05-28T18:42:59.482Z,81.40
2018-05-28T18:45:26.677Z,82.70
2018-05-28T18:47:53.086Z,82.00
2018-05-28T18:50:19.492Z,82.30
2018-05-28T18:52:46.647Z,82.80
2018-05-28T18:55:13.038Z,82.80
2018-05-28T18:57:39.441Z,83.50
2018-05-28T19:00:05.880Z,84.10
2018-05-28T19:02:32.317Z,84.00
2018-05-28T19:04:58.716Z,83.70
2018-05-28T19:07:25.139Z,83.80
2018-05-28T19:09:52.299Z,83.20
2018-05-28T19:12:20.307Z,83.20
2018-05-28T19:14:46.716Z,82.70
2018-05-28T19:17:13.085Z,82.20
2018-05-28T19:19:39.980Z,81.80
2018-05-28T19:22:06.368Z,81.40
2018-05-28T19:24:32.776Z,80.70
2018-05-28T19:26:59.188Z,80.50
2018-05-28T19:29:25.609Z,80.30
2018-05-28T19:31:52.020Z,79.10
2018-05-28T19:34:19.187Z,78.10
2018-05-28T19:36:46.343Z,77.60
2018-05-28T19:39:13.601Z,77.60
2018-05-28T19:41:40.004Z,76.90
2018-05-28T19:44:07.151Z,76.50
2018-05-28T19:46:33.624Z,76.60
2018-05-28T19:49:00.583Z,76.80
2018-05-28T19:51:27.404Z,76.70
2018-05-28T19:53:53.836Z,77.80
2018-05-28T19:56:20.237Z,77.40
2018-05-28T19:58:46.781Z,78.00
2018-05-28T20:01:13.917Z,79.20
2018-05-28T20:03:41.809Z,79.70
2018-05-28T20:06:08.974Z,80.00
2018-05-28T20:08:35.378Z,80.00
2018-05-28T20:11:01.788Z,80.20
2018-05-28T20:13:28.193Z,80.30
2018-05-28T20:15:54.591Z,80.50
2018-05-28T20:18:21.737Z,81.10
2018-05-28T20:20:48.864Z,81.80
2018-05-28T20:23:15.248Z,81.10
2018-05-28T20:25:41.642Z,81.50
2018-05-28T20:28:08.821Z,81.70
2018-05-28T20:30:35.284Z,81.70
2018-05-28T20:33:01.682Z,81.50
2018-05-28T20:35:28.116Z,81.80
2018-05-28T20:37:54.594Z,81.60
2018-05-28T20:40:20.968Z,81.80
2018-05-28T20:42:48.229Z,82.10
2018-05-28T20:45:15.357Z,82.30
2018-05-28T20:47:41.857Z,82.30
2018-05-28T20:50:08.425Z,82.40
2018-05-28T20:52:35.585Z,83.00
2018-05-28T20:55:02.735Z,83.10
2018-05-28T20:57:29.915Z,83.00
2018-05-28T20:59:57.052Z,83.20
2018-05-28T21:02:24.207Z,83.20
2018-05-28T21:04:50.643Z,83.20
2018-05-28T21:07:17.037Z,83.30
2018-05-28T21:09:43.445Z,83.30
2018-05-28T21:12:09.836Z,83.30
2018-05-28T21:14:37.008Z,83.90
2018-05-28T21:17:03.390Z,83.80
2018-05-28T21:19:29.803Z,83.80
2018-05-28T21:21:56.210Z,83.90
2018-05-28T21:24:22.606Z,83.90
2018-05-28T21:26:49.781Z,84.50
2018-05-28T21:29:16.172Z,83.80
2018-05-28T21:31:42.575Z,83.90
2018-05-28T21:34:08.975Z,84.10
2018-05-28T21:36:35.381Z,83.90
2018-05-28T21:39:02.590Z,84.30
2018-05-28T21:41:28.995Z,84.20
2018-05-28T21:43:55.381Z,84.40
2018-05-28T21:46:21.789Z,84.60
2018-05-28T21:48:48.285Z,84.70
2018-05-28T21:51:15.420Z,85.00
2018-05-28T21:53:42.559Z,85.20
2018-05-28T21:56:09.695Z,85.40
2018-05-28T21:58:36.836Z,85.50
2018-05-28T22:01:05.258Z,85.50
2018-05-28T22:03:32.385Z,85.90
2018-05-28T22:05:59.524Z,86.20
2018-05-28T22:08:25.920Z,86.10
2018-05-28T22:10:52.326Z,86.10
2018-05-28T22:13:18.746Z,86.00
2018-05-28T22:15:45.890Z,86.30
2018-05-28T22:18:12.275Z,86.30
2018-05-28T22:20:38.681Z,86.20
2018-05-28T22:23:05.092Z,86.40
2018-05-28T22:25:32.232Z,86.70
2018-05-28T22:27:59.344Z,86.80
2018-05-28T22:30:25.730Z,86.80
2018-05-28T22:32:52.869Z,87.10
2018-05-28T22:35:19.996Z,87.30
2018-05-28T22:37:46.378Z,87.30
2018-05-28T22:40:13.520Z,87.80
2018-05-28T22:42:39.914Z,87.80
2018-05-28T22:45:06.320Z,88.20
2018-05-28T22:47:32.721Z,88.40
2018-05-28T22:49:59.106Z,88.70
2018-05-28T22:52:25.504Z,88.50
2018-05-28T22:54:51.955Z,88.60
2018-05-28T22:57:18.356Z,89.00
2018-05-28T22:59:44.779Z,89.30
2018-05-28T23:02:11.168Z,89.30
2018-05-28T23:04:37.553Z,89.40
2018-05-28T23:07:03.949Z,89.50
2018-05-28T23:09:30.332Z,89.60
2018-05-28T23:11:56.733Z,89.90
2018-05-28T23:14:23.137Z,89.80
2018-05-28T23:16:49.530Z,90.00
2018-05-28T23:19:15.914Z,90.00
2018-05-28T23:21:42.317Z,90.00
2018-05-28T23:24:08.725Z,90.00
2018-05-28T23:26:35.145Z,89.80
2018-05-28T23:29:01.549Z,90.00
2018-05-28T23:31:28.678Z,90.00
2018-05-28T23:33:55.078Z,90.00
2018-05-28T23:36:21.482Z,90.00
2018-05-28T23:38:48.643Z,90.00
2018-05-28T23:41:15.074Z,90.00
2018-05-28T23:43:41.479Z,89.80
2018-05-28T23:46:08.640Z,89.20
2018-05-28T23:48:35.785Z,89.00
2018-05-28T23:51:02.930Z,89.90
2018-05-28T23:53:29.316Z,89.30
2018-05-28T23:55:55.716Z,89.50
2018-05-28T23:58:22.097Z,90.00
